Terminal Aerodrome Forecast
Issued by NWS

Current Version | Previous Version | Text Only | Print | Product List | Glossary On
Versions: 1 2 3 4 5 6 7 8 9 10 11 12 13 14 15 16 17 18
856
FTUS43 KMQT 141739
TAFIWD
TAF
KIWD 141739Z 1418/1518 17011G18KT P6SM SCT200
     FM142100 17011G17KT P6SM BKN045
     FM150300 17010G15KT P6SM OVC030
     FM151100 20006KT P6SM OVC026
      AMD LTD TO CLD VIS AND WIND=

USA.gov is the U.S. government's official web portal to all federal, state and local government web resources and services.